sensor_id;sensor_type;location;lat;lon;timestamp;P1;durP1;ratioP1;P2;durP2;ratioP2
10341;SDS011;5216;54.602;18.356;2024-02-26T00:01:04;5.70;;;4.80;;
10341;SDS011;5216;54.602;18.356;2024-02-26T00:03:31;5.53;;;4.20;;
10341;SDS011;5216;54.602;18.356;2024-02-26T00:06:02;5.33;;;3.60;;
10341;SDS011;5216;54.602;18.356;2024-02-26T00:08:29;3.80;;;2.70;;
10341;SDS011;5216;54.602;18.356;2024-02-26T00:10:56;3.40;;;2.40;;
10341;SDS011;5216;54.602;18.356;2024-02-26T00:13:22;4.17;;;3.00;;
10341;SDS011;5216;54.602;18.356;2024-02-26T00:15:49;4.83;;;4.33;;
10341;SDS011;5216;54.602;18.356;2024-02-26T00:18:16;5.27;;;4.77;;
10341;SDS011;5216;54.602;18.356;2024-02-26T00:20:43;7.97;;;6.23;;
10341;SDS011;5216;54.602;18.356;2024-02-26T00:23:10;8.83;;;7.73;;
10341;SDS011;5216;54.602;18.356;2024-02-26T00:25:36;8.17;;;6.80;;
10341;SDS011;5216;54.602;18.356;2024-02-26T00:28:04;8.63;;;6.33;;
10341;SDS011;5216;54.602;18.356;2024-02-26T00:30:31;9.23;;;6.33;;
10341;SDS011;5216;54.602;18.356;2024-02-26T00:32:59;8.57;;;5.97;;
10341;SDS011;5216;54.602;18.356;2024-02-26T00:35:26;10.93;;;7.57;;
10341;SDS011;5216;54.602;18.356;2024-02-26T00:37:52;7.63;;;6.17;;
10341;SDS011;5216;54.602;18.356;2024-02-26T00:40:19;7.53;;;6.33;;
10341;SDS011;5216;54.602;18.356;2024-02-26T00:42:46;6.87;;;5.30;;
10341;SDS011;5216;54.602;18.356;2024-02-26T00:45:14;8.87;;;7.87;;
10341;SDS011;5216;54.602;18.356;2024-02-26T00:47:42;8.50;;;6.60;;
10341;SDS011;5216;54.602;18.356;2024-02-26T00:50:11;5.83;;;5.23;;
10341;SDS011;5216;54.602;18.356;2024-02-26T00:52:38;5.70;;;5.10;;
10341;SDS011;5216;54.602;18.356;2024-02-26T00:55:05;6.40;;;5.60;;
10341;SDS011;5216;54.602;18.356;2024-02-26T00:57:33;5.47;;;4.13;;
10341;SDS011;5216;54.602;18.356;2024-02-26T00:59:59;4.57;;;4.10;;
10341;SDS011;5216;54.602;18.356;2024-02-26T01:02:27;5.87;;;4.73;;
10341;SDS011;5216;54.602;18.356;2024-02-26T01:04:54;6.67;;;5.73;;
10341;SDS011;5216;54.602;18.356;2024-02-26T01:07:20;10.00;;;7.90;;
10341;SDS011;5216;54.602;18.356;2024-02-26T01:09:48;9.50;;;8.00;;
10341;SDS011;5216;54.602;18.356;2024-02-26T01:12:14;11.60;;;9.97;;
10341;SDS011;5216;54.602;18.356;2024-02-26T01:14:42;14.43;;;12.70;;
10341;SDS011;5216;54.602;18.356;2024-02-26T01:17:09;13.20;;;11.17;;
10341;SDS011;5216;54.602;18.356;2024-02-26T01:19:35;10.70;;;9.60;;
10341;SDS011;5216;54.602;18.356;2024-02-26T01:22:02;12.17;;;10.87;;
10341;SDS011;5216;54.602;18.356;2024-02-26T01:24:29;10.87;;;9.03;;
10341;SDS011;5216;54.602;18.356;2024-02-26T01:26:56;7.67;;;6.63;;
10341;SDS011;5216;54.602;18.356;2024-02-26T01:29:22;8.30;;;6.73;;
10341;SDS011;5216;54.602;18.356;2024-02-26T01:31:49;9.23;;;7.40;;
10341;SDS011;5216;54.602;18.356;2024-02-26T01:34:16;9.77;;;7.80;;
10341;SDS011;5216;54.602;18.356;2024-02-26T01:36:44;10.23;;;7.63;;
10341;SDS011;5216;54.602;18.356;2024-02-26T01:39:11;8.67;;;6.80;;
10341;SDS011;5216;54.602;18.356;2024-02-26T01:41:39;9.07;;;6.67;;
10341;SDS011;5216;54.602;18.356;2024-02-26T01:44:06;8.87;;;6.67;;
10341;SDS011;5216;54.602;18.356;2024-02-26T01:46:34;7.27;;;6.00;;
10341;SDS011;5216;54.602;18.356;2024-02-26T01:49:02;6.30;;;5.63;;
10341;SDS011;5216;54.602;18.356;2024-02-26T01:51:30;9.37;;;6.37;;
10341;SDS011;5216;54.602;18.356;2024-02-26T01:53:58;6.90;;;6.10;;
10341;SDS011;5216;54.602;18.356;2024-02-26T01:56:27;7.20;;;5.77;;
10341;SDS011;5216;54.602;18.356;2024-02-26T01:58:57;9.03;;;6.90;;
10341;SDS011;5216;54.602;18.356;2024-02-26T02:01:25;9.27;;;7.90;;
10341;SDS011;5216;54.602;18.356;2024-02-26T02:03:54;12.37;;;8.97;;
10341;SDS011;5216;54.602;18.356;2024-02-26T02:06:22;12.00;;;8.97;;
10341;SDS011;5216;54.602;18.356;2024-02-26T02:08:49;10.13;;;7.50;;
10341;SDS011;5216;54.602;18.356;2024-02-26T02:11:16;9.50;;;7.73;;
10341;SDS011;5216;54.602;18.356;2024-02-26T02:13:43;10.20;;;7.60;;
10341;SDS011;5216;54.602;18.356;2024-02-26T02:16:10;10.13;;;7.23;;
10341;SDS011;5216;54.602;18.356;2024-02-26T02:18:37;7.27;;;6.27;;
10341;SDS011;5216;54.602;18.356;2024-02-26T02:21:04;9.87;;;8.33;;
10341;SDS011;5216;54.602;18.356;2024-02-26T02:23:31;8.97;;;6.90;;
10341;SDS011;5216;54.602;18.356;2024-02-26T02:25:57;7.07;;;5.20;;
10341;SDS011;5216;54.602;18.356;2024-02-26T02:28:25;10.13;;;8.07;;
10341;SDS011;5216;54.602;18.356;2024-02-26T02:30:53;9.23;;;6.87;;
10341;SDS011;5216;54.602;18.356;2024-02-26T02:33:21;6.47;;;5.70;;
10341;SDS011;5216;54.602;18.356;2024-02-26T02:35:49;6.03;;;4.93;;
10341;SDS011;5216;54.602;18.356;2024-02-26T02:38:18;6.47;;;5.00;;
10341;SDS011;5216;54.602;18.356;2024-02-26T02:40:45;8.13;;;6.07;;
10341;SDS011;5216;54.602;18.356;2024-02-26T02:43:12;5.73;;;4.60;;
10341;SDS011;5216;54.602;18.356;2024-02-26T02:45:38;5.90;;;4.67;;
10341;SDS011;5216;54.602;18.356;2024-02-26T02:48:05;5.37;;;4.13;;
10341;SDS011;5216;54.602;18.356;2024-02-26T02:50:32;7.57;;;6.00;;
10341;SDS011;5216;54.602;18.356;2024-02-26T02:52:59;6.90;;;6.00;;
10341;SDS011;5216;54.602;18.356;2024-02-26T02:55:26;8.37;;;6.77;;
10341;SDS011;5216;54.602;18.356;2024-02-26T02:57:53;6.50;;;5.80;;
10341;SDS011;5216;54.602;18.356;2024-02-26T03:00:20;16.97;;;11.73;;
10341;SDS011;5216;54.602;18.356;2024-02-26T03:02:49;11.30;;;9.13;;
10341;SDS011;5216;54.602;18.356;2024-02-26T03:05:16;9.17;;;6.97;;
10341;SDS011;5216;54.602;18.356;2024-02-26T03:07:43;11.57;;;8.70;;
10341;SDS011;5216;54.602;18.356;2024-02-26T03:10:09;9.90;;;7.70;;
10341;SDS011;5216;54.602;18.356;2024-02-26T03:12:36;7.57;;;6.70;;
10341;SDS011;5216;54.602;18.356;2024-02-26T03:15:03;7.63;;;6.33;;
10341;SDS011;5216;54.602;18.356;2024-02-26T03:17:30;6.40;;;5.80;;
10341;SDS011;5216;54.602;18.356;2024-02-26T03:19:58;16.30;;;10.57;;
10341;SDS011;5216;54.602;18.356;2024-02-26T03:22:24;19.17;;;12.73;;
10341;SDS011;5216;54.602;18.356;2024-02-26T03:24:51;10.93;;;8.57;;
10341;SDS011;5216;54.602;18.356;2024-02-26T03:27:18;11.10;;;8.90;;
10341;SDS011;5216;54.602;18.356;2024-02-26T03:29:45;10.67;;;8.67;;
10341;SDS011;5216;54.602;18.356;2024-02-26T03:32:11;8.03;;;6.70;;
10341;SDS011;5216;54.602;18.356;2024-02-26T03:34:38;7.37;;;6.17;;
10341;SDS011;5216;54.602;18.356;2024-02-26T03:37:08;10.43;;;9.33;;
10341;SDS011;5216;54.602;18.356;2024-02-26T03:39:37;7.13;;;6.43;;
10341;SDS011;5216;54.602;18.356;2024-02-26T03:42:03;8.50;;;6.97;;
10341;SDS011;5216;54.602;18.356;2024-02-26T03:44:30;8.33;;;6.20;;
10341;SDS011;5216;54.602;18.356;2024-02-26T03:46:57;9.17;;;8.00;;
10341;SDS011;5216;54.602;18.356;2024-02-26T03:49:24;8.80;;;7.77;;
10341;SDS011;5216;54.602;18.356;2024-02-26T03:51:51;7.43;;;6.50;;
10341;SDS011;5216;54.602;18.356;2024-02-26T03:54:17;9.73;;;7.93;;
10341;SDS011;5216;54.602;18.356;2024-02-26T03:56:44;8.37;;;7.40;;
10341;SDS011;5216;54.602;18.356;2024-02-26T03:59:11;8.53;;;7.73;;
10341;SDS011;5216;54.602;18.356;2024-02-26T04:01:37;8.20;;;7.40;;
10341;SDS011;5216;54.602;18.356;2024-02-26T04:04:04;9.67;;;7.67;;
10341;SDS011;5216;54.602;18.356;2024-02-26T04:06:31;7.50;;;6.73;;
10341;SDS011;5216;54.602;18.356;2024-02-26T04:08:58;9.07;;;7.93;;
10341;SDS011;5216;54.602;18.356;2024-02-26T04:11:25;9.03;;;8.13;;
10341;SDS011;5216;54.602;18.356;2024-02-26T04:13:52;9.53;;;8.03;;
10341;SDS011;5216;54.602;18.356;2024-02-26T04:16:19;8.63;;;7.70;;
10341;SDS011;5216;54.602;18.356;2024-02-26T04:18:45;9.27;;;8.27;;
10341;SDS011;5216;54.602;18.356;2024-02-26T04:21:12;9.30;;;8.00;;
10341;SDS011;5216;54.602;18.356;2024-02-26T04:23:39;9.77;;;8.77;;
10341;SDS011;5216;54.602;18.356;2024-02-26T04:26:06;10.57;;;8.97;;
10341;SDS011;5216;54.602;18.356;2024-02-26T04:28:32;10.83;;;9.30;;
10341;SDS011;5216;54.602;18.356;2024-02-26T04:30:59;12.50;;;8.80;;
10341;SDS011;5216;54.602;18.356;2024-02-26T04:33:26;9.80;;;8.80;;
10341;SDS011;5216;54.602;18.356;2024-02-26T04:35:53;9.40;;;8.37;;
10341;SDS011;5216;54.602;18.356;2024-02-26T04:38:20;9.33;;;8.30;;
10341;SDS011;5216;54.602;18.356;2024-02-26T04:40:46;9.17;;;8.23;;
10341;SDS011;5216;54.602;18.356;2024-02-26T04:43:13;9.30;;;8.07;;
10341;SDS011;5216;54.602;18.356;2024-02-26T04:45:40;9.27;;;8.13;;
10341;SDS011;5216;54.602;18.356;2024-02-26T04:48:07;9.73;;;8.30;;
10341;SDS011;5216;54.602;18.356;2024-02-26T04:50:34;9.07;;;8.17;;
10341;SDS011;5216;54.602;18.356;2024-02-26T04:53:01;9.53;;;7.83;;
10341;SDS011;5216;54.602;18.356;2024-02-26T04:55:27;8.10;;;7.30;;
10341;SDS011;5216;54.602;18.356;2024-02-26T04:57:54;8.93;;;8.03;;
10341;SDS011;5216;54.602;18.356;2024-02-26T05:00:21;9.37;;;8.20;;
10341;SDS011;5216;54.602;18.356;2024-02-26T05:02:48;8.93;;;8.03;;
10341;SDS011;5216;54.602;18.356;2024-02-26T05:05:15;11.00;;;9.90;;
10341;SDS011;5216;54.602;18.356;2024-02-26T05:07:42;11.60;;;10.40;;
10341;SDS011;5216;54.602;18.356;2024-02-26T05:10:09;23.83;;;21.10;;
10341;SDS011;5216;54.602;18.356;2024-02-26T05:12:37;15.83;;;14.23;;
10341;SDS011;5216;54.602;18.356;2024-02-26T05:15:04;13.77;;;10.33;;
10341;SDS011;5216;54.602;18.356;2024-02-26T05:17:32;17.80;;;16.07;;
10341;SDS011;5216;54.602;18.356;2024-02-26T05:19:58;12.63;;;11.33;;
10341;SDS011;5216;54.602;18.356;2024-02-26T05:22:25;15.67;;;13.33;;
10341;SDS011;5216;54.602;18.356;2024-02-26T05:24:52;16.87;;;15.07;;
10341;SDS011;5216;54.602;18.356;2024-02-26T05:27:18;18.37;;;16.43;;
10341;SDS011;5216;54.602;18.356;2024-02-26T05:29:45;21.33;;;19.23;;
10341;SDS011;5216;54.602;18.356;2024-02-26T05:32:12;22.67;;;20.13;;
10341;SDS011;5216;54.602;18.356;2024-02-26T05:34:39;21.30;;;19.07;;
10341;SDS011;5216;54.602;18.356;2024-02-26T05:37:07;22.60;;;18.97;;
10341;SDS011;5216;54.602;18.356;2024-02-26T05:39:34;19.67;;;17.57;;
10341;SDS011;5216;54.602;18.356;2024-02-26T05:42:01;17.73;;;15.93;;
10341;SDS011;5216;54.602;18.356;2024-02-26T05:44:28;21.87;;;19.67;;
10341;SDS011;5216;54.602;18.356;2024-02-26T05:46:55;18.20;;;16.27;;
10341;SDS011;5216;54.602;18.356;2024-02-26T05:49:22;18.50;;;16.63;;
10341;SDS011;5216;54.602;18.356;2024-02-26T05:51:49;15.40;;;13.63;;
10341;SDS011;5216;54.602;18.356;2024-02-26T05:54:16;16.50;;;14.87;;
10341;SDS011;5216;54.602;18.356;2024-02-26T05:56:43;17.33;;;14.77;;
10341;SDS011;5216;54.602;18.356;2024-02-26T05:59:09;17.93;;;16.17;;
10341;SDS011;5216;54.602;18.356;2024-02-26T06:01:36;17.27;;;14.93;;
10341;SDS011;5216;54.602;18.356;2024-02-26T06:04:03;36.87;;;32.87;;
10341;SDS011;5216;54.602;18.356;2024-02-26T06:06:30;18.10;;;16.30;;
10341;SDS011;5216;54.602;18.356;2024-02-26T06:08:57;50.23;;;44.93;;
10341;SDS011;5216;54.602;18.356;2024-02-26T06:11:24;22.40;;;20.00;;
10341;SDS011;5216;54.602;18.356;2024-02-26T06:13:50;14.97;;;13.37;;
10341;SDS011;5216;54.602;18.356;2024-02-26T06:16:17;17.33;;;14.37;;
10341;SDS011;5216;54.602;18.356;2024-02-26T06:18:44;17.83;;;16.03;;
10341;SDS011;5216;54.602;18.356;2024-02-26T06:21:11;19.50;;;17.50;;
10341;SDS011;5216;54.602;18.356;2024-02-26T06:23:38;19.80;;;17.73;;
10341;SDS011;5216;54.602;18.356;2024-02-26T06:26:05;19.90;;;17.50;;
10341;SDS011;5216;54.602;18.356;2024-02-26T06:28:32;50.93;;;45.73;;
10341;SDS011;5216;54.602;18.356;2024-02-26T06:31:00;18.13;;;16.33;;
10341;SDS011;5216;54.602;18.356;2024-02-26T06:33:27;19.10;;;17.10;;
10341;SDS011;5216;54.602;18.356;2024-02-26T06:35:54;20.33;;;18.13;;
10341;SDS011;5216;54.602;18.356;2024-02-26T06:38:20;22.10;;;19.80;;
10341;SDS011;5216;54.602;18.356;2024-02-26T06:40:47;22.70;;;20.20;;
10341;SDS011;5216;54.602;18.356;2024-02-26T06:43:14;24.23;;;21.57;;
10341;SDS011;5216;54.602;18.356;2024-02-26T06:45:40;36.00;;;32.20;;
10341;SDS011;5216;54.602;18.356;2024-02-26T06:48:07;38.90;;;31.93;;
10341;SDS011;5216;54.602;18.356;2024-02-26T06:50:34;41.50;;;34.03;;
10341;SDS011;5216;54.602;18.356;2024-02-26T06:53:01;42.93;;;33.90;;
10341;SDS011;5216;54.602;18.356;2024-02-26T06:55:28;46.97;;;36.63;;
10341;SDS011;5216;54.602;18.356;2024-02-26T06:57:55;46.03;;;35.40;;
10341;SDS011;5216;54.602;18.356;2024-02-26T07:00:21;41.77;;;33.93;;
10341;SDS011;5216;54.602;18.356;2024-02-26T07:02:48;42.77;;;34.40;;
10341;SDS011;5216;54.602;18.356;2024-02-26T07:05:15;40.00;;;32.90;;
10341;SDS011;5216;54.602;18.356;2024-02-26T07:07:42;37.33;;;31.33;;
10341;SDS011;5216;54.602;18.356;2024-02-26T07:10:08;44.50;;;38.27;;
10341;SDS011;5216;54.602;18.356;2024-02-26T07:12:36;127.97;;;111.23;;
10341;SDS011;5216;54.602;18.356;2024-02-26T07:15:02;119.33;;;106.23;;
10341;SDS011;5216;54.602;18.356;2024-02-26T07:17:30;64.73;;;56.77;;
10341;SDS011;5216;54.602;18.356;2024-02-26T07:19:56;44.70;;;35.27;;
10341;SDS011;5216;54.602;18.356;2024-02-26T07:22:23;36.27;;;30.37;;
10341;SDS011;5216;54.602;18.356;2024-02-26T07:24:51;33.40;;;28.53;;
10341;SDS011;5216;54.602;18.356;2024-02-26T07:27:18;34.23;;;27.70;;
10341;SDS011;5216;54.602;18.356;2024-02-26T07:29:45;36.70;;;29.73;;
10341;SDS011;5216;54.602;18.356;2024-02-26T07:32:13;36.60;;;30.60;;
10341;SDS011;5216;54.602;18.356;2024-02-26T07:34:40;38.30;;;33.00;;
10341;SDS011;5216;54.602;18.356;2024-02-26T07:37:08;40.63;;;31.63;;
10341;SDS011;5216;54.602;18.356;2024-02-26T07:39:35;46.37;;;40.67;;
10341;SDS011;5216;54.602;18.356;2024-02-26T07:42:03;44.70;;;37.73;;
10341;SDS011;5216;54.602;18.356;2024-02-26T07:44:30;46.07;;;36.57;;
10341;SDS011;5216;54.602;18.356;2024-02-26T07:46:57;47.43;;;35.37;;
10341;SDS011;5216;54.602;18.356;2024-02-26T07:49:24;43.97;;;33.47;;
10341;SDS011;5216;54.602;18.356;2024-02-26T07:51:51;42.33;;;31.40;;
10341;SDS011;5216;54.602;18.356;2024-02-26T07:54:18;41.13;;;31.30;;
10341;SDS011;5216;54.602;18.356;2024-02-26T07:56:45;37.93;;;30.73;;
10341;SDS011;5216;54.602;18.356;2024-02-26T07:59:12;39.63;;;30.93;;
10341;SDS011;5216;54.602;18.356;2024-02-26T08:01:40;39.47;;;29.03;;
10341;SDS011;5216;54.602;18.356;2024-02-26T08:04:08;37.67;;;28.63;;
10341;SDS011;5216;54.602;18.356;2024-02-26T08:06:35;36.90;;;26.93;;
10341;SDS011;5216;54.602;18.356;2024-02-26T08:09:04;37.00;;;27.67;;
10341;SDS011;5216;54.602;18.356;2024-02-26T08:11:31;38.03;;;28.63;;
10341;SDS011;5216;54.602;18.356;2024-02-26T08:13:57;35.17;;;27.23;;
10341;SDS011;5216;54.602;18.356;2024-02-26T08:16:25;34.73;;;26.43;;
10341;SDS011;5216;54.602;18.356;2024-02-26T08:18:53;42.63;;;32.77;;
10341;SDS011;5216;54.602;18.356;2024-02-26T08:21:20;47.43;;;36.17;;
10341;SDS011;5216;54.602;18.356;2024-02-26T08:23:47;49.23;;;38.60;;
10341;SDS011;5216;54.602;18.356;2024-02-26T08:26:13;43.60;;;35.37;;
10341;SDS011;5216;54.602;18.356;2024-02-26T08:28:40;41.43;;;33.87;;
10341;SDS011;5216;54.602;18.356;2024-02-26T08:31:07;41.33;;;33.10;;
10341;SDS011;5216;54.602;18.356;2024-02-26T08:33:34;40.90;;;32.30;;
10341;SDS011;5216;54.602;18.356;2024-02-26T08:36:05;37.93;;;31.53;;
10341;SDS011;5216;54.602;18.356;2024-02-26T08:38:32;38.63;;;30.93;;
10341;SDS011;5216;54.602;18.356;2024-02-26T08:41:01;42.50;;;32.67;;
10341;SDS011;5216;54.602;18.356;2024-02-26T08:43:29;28.30;;;24.53;;
10341;SDS011;5216;54.602;18.356;2024-02-26T08:45:56;35.03;;;27.10;;
10341;SDS011;5216;54.602;18.356;2024-02-26T08:48:24;31.97;;;25.87;;
10341;SDS011;5216;54.602;18.356;2024-02-26T08:50:51;29.37;;;26.07;;
10341;SDS011;5216;54.602;18.356;2024-02-26T08:53:17;30.33;;;25.90;;
10341;SDS011;5216;54.602;18.356;2024-02-26T08:55:56;37.93;;;30.13;;
10341;SDS011;5216;54.602;18.356;2024-02-26T08:58:23;36.87;;;30.00;;
10341;SDS011;5216;54.602;18.356;2024-02-26T09:00:50;34.63;;;29.83;;
10341;SDS011;5216;54.602;18.356;2024-02-26T09:03:17;29.90;;;26.67;;
10341;SDS011;5216;54.602;18.356;2024-02-26T09:05:44;35.60;;;29.47;;
10341;SDS011;5216;54.602;18.356;2024-02-26T09:08:11;33.37;;;29.20;;
10341;SDS011;5216;54.602;18.356;2024-02-26T09:10:38;35.13;;;30.63;;
10341;SDS011;5216;54.602;18.356;2024-02-26T09:13:05;34.60;;;30.10;;
10341;SDS011;5216;54.602;18.356;2024-02-26T09:15:32;39.30;;;33.40;;
10341;SDS011;5216;54.602;18.356;2024-02-26T09:17:59;36.27;;;32.37;;
10341;SDS011;5216;54.602;18.356;2024-02-26T09:20:26;40.20;;;32.90;;
10341;SDS011;5216;54.602;18.356;2024-02-26T09:22:52;37.07;;;32.97;;
10341;SDS011;5216;54.602;18.356;2024-02-26T09:25:19;37.67;;;33.03;;
10341;SDS011;5216;54.602;18.356;2024-02-26T09:27:46;36.87;;;32.73;;
10341;SDS011;5216;54.602;18.356;2024-02-26T09:30:14;38.87;;;33.53;;
10341;SDS011;5216;54.602;18.356;2024-02-26T09:32:40;37.90;;;31.20;;
10341;SDS011;5216;54.602;18.356;2024-02-26T09:35:08;33.37;;;29.87;;
10341;SDS011;5216;54.602;18.356;2024-02-26T09:37:36;34.33;;;30.73;;
10341;SDS011;5216;54.602;18.356;2024-02-26T09:40:03;31.83;;;28.53;;
10341;SDS011;5216;54.602;18.356;2024-02-26T09:42:32;33.47;;;29.77;;
10341;SDS011;5216;54.602;18.356;2024-02-26T09:45:03;32.40;;;28.90;;
10341;SDS011;5216;54.602;18.356;2024-02-26T09:47:34;31.73;;;28.10;;
10341;SDS011;5216;54.602;18.356;2024-02-26T09:50:02;28.70;;;25.50;;
10341;SDS011;5216;54.602;18.356;2024-02-26T09:52:31;27.10;;;23.80;;
10341;SDS011;5216;54.602;18.356;2024-02-26T09:54:59;24.27;;;21.77;;
10341;SDS011;5216;54.602;18.356;2024-02-26T09:57:26;22.43;;;20.23;;
10341;SDS011;5216;54.602;18.356;2024-02-26T09:59:54;20.57;;;18.30;;
10341;SDS011;5216;54.602;18.356;2024-02-26T10:02:28;21.90;;;19.70;;
10341;SDS011;5216;54.602;18.356;2024-02-26T10:04:55;18.60;;;16.70;;
10341;SDS011;5216;54.602;18.356;2024-02-26T10:07:24;18.60;;;16.77;;
10341;SDS011;5216;54.602;18.356;2024-02-26T10:09:51;18.23;;;16.43;;
10341;SDS011;5216;54.602;18.356;2024-02-26T10:12:18;17.50;;;15.80;;
10341;SDS011;5216;54.602;18.356;2024-02-26T10:14:45;16.70;;;15.10;;
10341;SDS011;5216;54.602;18.356;2024-02-26T10:17:12;19.40;;;17.43;;
10341;SDS011;5216;54.602;18.356;2024-02-26T10:19:39;16.70;;;15.00;;
10341;SDS011;5216;54.602;18.356;2024-02-26T10:22:06;16.40;;;14.90;;
10341;SDS011;5216;54.602;18.356;2024-02-26T10:24:33;17.40;;;15.60;;
10341;SDS011;5216;54.602;18.356;2024-02-26T10:27:01;16.90;;;15.30;;
10341;SDS011;5216;54.602;18.356;2024-02-26T10:29:29;16.50;;;14.97;;
10341;SDS011;5216;54.602;18.356;2024-02-26T10:31:56;15.97;;;14.33;;
10341;SDS011;5216;54.602;18.356;2024-02-26T10:34:23;16.80;;;15.23;;
10341;SDS011;5216;54.602;18.356;2024-02-26T10:36:50;17.17;;;15.47;;
10341;SDS011;5216;54.602;18.356;2024-02-26T10:39:20;16.43;;;14.83;;
10341;SDS011;5216;54.602;18.356;2024-02-26T10:41:48;16.03;;;14.47;;
10341;SDS011;5216;54.602;18.356;2024-02-26T10:44:15;16.73;;;15.13;;
10341;SDS011;5216;54.602;18.356;2024-02-26T10:46:46;16.97;;;15.37;;
10341;SDS011;5216;54.602;18.356;2024-02-26T10:49:14;16.87;;;15.13;;
10341;SDS011;5216;54.602;18.356;2024-02-26T10:51:45;15.37;;;13.77;;
10341;SDS011;5216;54.602;18.356;2024-02-26T10:54:21;16.07;;;14.47;;
10341;SDS011;5216;54.602;18.356;2024-02-26T10:56:50;15.70;;;14.10;;
10341;SDS011;5216;54.602;18.356;2024-02-26T10:59:18;16.90;;;15.20;;
10341;SDS011;5216;54.602;18.356;2024-02-26T11:01:47;17.33;;;15.60;;
10341;SDS011;5216;54.602;18.356;2024-02-26T11:04:16;15.70;;;14.03;;
10341;SDS011;5216;54.602;18.356;2024-02-26T11:06:44;15.00;;;13.50;;
10341;SDS011;5216;54.602;18.356;2024-02-26T11:09:13;15.77;;;13.60;;
10341;SDS011;5216;54.602;18.356;2024-02-26T11:11:41;15.77;;;13.70;;
10341;SDS011;5216;54.602;18.356;2024-02-26T11:14:09;14.00;;;12.70;;
10341;SDS011;5216;54.602;18.356;2024-02-26T11:16:39;14.80;;;13.30;;
10341;SDS011;5216;54.602;18.356;2024-02-26T11:19:09;14.90;;;13.47;;
10341;SDS011;5216;54.602;18.356;2024-02-26T11:21:39;14.70;;;13.20;;
10341;SDS011;5216;54.602;18.356;2024-02-26T11:24:08;14.37;;;13.07;;
10341;SDS011;5216;54.602;18.356;2024-02-26T11:26:41;14.40;;;12.93;;
10341;SDS011;5216;54.602;18.356;2024-02-26T11:29:15;13.73;;;11.97;;
10341;SDS011;5216;54.602;18.356;2024-02-26T11:31:46;13.77;;;12.47;;
10341;SDS011;5216;54.602;18.356;2024-02-26T11:34:13;14.27;;;11.80;;
10341;SDS011;5216;54.602;18.356;2024-02-26T11:36:41;12.77;;;11.57;;
10341;SDS011;5216;54.602;18.356;2024-02-26T11:39:08;13.93;;;12.33;;
10341;SDS011;5216;54.602;18.356;2024-02-26T11:41:39;14.50;;;11.67;;
10341;SDS011;5216;54.602;18.356;2024-02-26T11:44:06;13.40;;;12.03;;
10341;SDS011;5216;54.602;18.356;2024-02-26T11:46:38;13.63;;;12.23;;
10341;SDS011;5216;54.602;18.356;2024-02-26T11:51:57;12.77;;;11.40;;
10341;SDS011;5216;54.602;18.356;2024-02-26T11:54:45;11.93;;;10.77;;
10341;SDS011;5216;54.602;18.356;2024-02-26T11:57:30;12.10;;;10.90;;
10341;SDS011;5216;54.602;18.356;2024-02-26T12:05:08;11.67;;;10.57;;
10341;SDS011;5216;54.602;18.356;2024-02-26T12:07:45;10.97;;;9.83;;
10341;SDS011;5216;54.602;18.356;2024-02-26T12:10:26;11.03;;;9.93;;
10341;SDS011;5216;54.602;18.356;2024-02-26T12:15:37;11.20;;;9.63;;
10341;SDS011;5216;54.602;18.356;2024-02-26T12:18:06;11.10;;;10.00;;
10341;SDS011;5216;54.602;18.356;2024-02-26T12:20:37;11.03;;;9.93;;
10341;SDS011;5216;54.602;18.356;2024-02-26T12:23:04;10.83;;;9.83;;
10341;SDS011;5216;54.602;18.356;2024-02-26T12:25:31;13.63;;;10.10;;
10341;SDS011;5216;54.602;18.356;2024-02-26T12:28:02;10.83;;;9.83;;
10341;SDS011;5216;54.602;18.356;2024-02-26T12:30:29;13.97;;;11.30;;
10341;SDS011;5216;54.602;18.356;2024-02-26T12:32:57;15.27;;;10.37;;
10341;SDS011;5216;54.602;18.356;2024-02-26T12:35:27;11.80;;;10.70;;
10341;SDS011;5216;54.602;18.356;2024-02-26T12:37:55;12.10;;;10.90;;
10341;SDS011;5216;54.602;18.356;2024-02-26T12:40:22;12.57;;;11.20;;
10341;SDS011;5216;54.602;18.356;2024-02-26T12:42:49;15.10;;;11.47;;
10341;SDS011;5216;54.602;18.356;2024-02-26T12:45:15;12.70;;;11.47;;
10341;SDS011;5216;54.602;18.356;2024-02-26T12:47:43;13.03;;;11.10;;
10341;SDS011;5216;54.602;18.356;2024-02-26T12:50:12;12.23;;;11.00;;
10341;SDS011;5216;54.602;18.356;2024-02-26T12:52:40;12.07;;;10.60;;
10341;SDS011;5216;54.602;18.356;2024-02-26T12:55:09;12.47;;;10.80;;
10341;SDS011;5216;54.602;18.356;2024-02-26T12:57:41;11.23;;;10.23;;
10341;SDS011;5216;54.602;18.356;2024-02-26T13:00:11;16.77;;;11.87;;
10341;SDS011;5216;54.602;18.356;2024-02-26T13:02:41;12.50;;;11.20;;
10341;SDS011;5216;54.602;18.356;2024-02-26T13:05:11;11.57;;;10.43;;
10341;SDS011;5216;54.602;18.356;2024-02-26T13:07:40;13.93;;;11.97;;
10341;SDS011;5216;54.602;18.356;2024-02-26T13:10:10;13.17;;;11.73;;
10341;SDS011;5216;54.602;18.356;2024-02-26T13:12:44;11.60;;;10.50;;
10341;SDS011;5216;54.602;18.356;2024-02-26T13:15:17;12.50;;;11.30;;
10341;SDS011;5216;54.602;18.356;2024-02-26T13:17:45;12.03;;;10.93;;
10341;SDS011;5216;54.602;18.356;2024-02-26T13:20:24;11.80;;;10.60;;
10341;SDS011;5216;54.602;18.356;2024-02-26T13:23:04;11.50;;;10.40;;
10341;SDS011;5216;54.602;18.356;2024-02-26T13:25:32;12.50;;;11.17;;
10341;SDS011;5216;54.602;18.356;2024-02-26T13:28:14;12.10;;;10.90;;
10341;SDS011;5216;54.602;18.356;2024-02-26T13:30:50;11.83;;;10.60;;
10341;SDS011;5216;54.602;18.356;2024-02-26T13:33:18;12.03;;;10.50;;
10341;SDS011;5216;54.602;18.356;2024-02-26T13:35:46;12.20;;;11.00;;
10341;SDS011;5216;54.602;18.356;2024-02-26T13:38:13;14.13;;;10.83;;
10341;SDS011;5216;54.602;18.356;2024-02-26T13:40:40;11.90;;;10.70;;
10341;SDS011;5216;54.602;18.356;2024-02-26T13:43:07;11.00;;;9.90;;
10341;SDS011;5216;54.602;18.356;2024-02-26T13:45:34;12.30;;;11.07;;
10341;SDS011;5216;54.602;18.356;2024-02-26T13:48:08;12.27;;;11.13;;
10341;SDS011;5216;54.602;18.356;2024-02-26T13:50:38;17.60;;;11.43;;
10341;SDS011;5216;54.602;18.356;2024-02-26T13:53:10;21.57;;;11.43;;
10341;SDS011;5216;54.602;18.356;2024-02-26T13:55:40;11.37;;;10.10;;
10341;SDS011;5216;54.602;18.356;2024-02-26T13:58:13;11.97;;;10.20;;
10341;SDS011;5216;54.602;18.356;2024-02-26T14:00:41;12.80;;;10.13;;
10341;SDS011;5216;54.602;18.356;2024-02-26T14:03:09;11.13;;;9.87;;
10341;SDS011;5216;54.602;18.356;2024-02-26T14:05:36;12.00;;;9.87;;
10341;SDS011;5216;54.602;18.356;2024-02-26T14:08:10;11.87;;;10.30;;
10341;SDS011;5216;54.602;18.356;2024-02-26T14:10:38;11.70;;;9.50;;
10341;SDS011;5216;54.602;18.356;2024-02-26T14:13:08;12.00;;;10.30;;
10341;SDS011;5216;54.602;18.356;2024-02-26T14:15:35;10.43;;;9.53;;
10341;SDS011;5216;54.602;18.356;2024-02-26T14:18:02;11.17;;;10.17;;
10341;SDS011;5216;54.602;18.356;2024-02-26T14:20:30;15.77;;;12.50;;
10341;SDS011;5216;54.602;18.356;2024-02-26T14:22:57;12.10;;;10.90;;
10341;SDS011;5216;54.602;18.356;2024-02-26T14:25:24;12.13;;;10.03;;
10341;SDS011;5216;54.602;18.356;2024-02-26T14:27:56;11.43;;;10.23;;
10341;SDS011;5216;54.602;18.356;2024-02-26T14:30:25;10.47;;;9.43;;
10341;SDS011;5216;54.602;18.356;2024-02-26T14:32:52;10.60;;;9.60;;
10341;SDS011;5216;54.602;18.356;2024-02-26T14:35:21;15.63;;;13.17;;
10341;SDS011;5216;54.602;18.356;2024-02-26T14:37:48;12.27;;;10.87;;
10341;SDS011;5216;54.602;18.356;2024-02-26T14:40:16;11.90;;;10.80;;
10341;SDS011;5216;54.602;18.356;2024-02-26T14:42:43;12.73;;;11.20;;
10341;SDS011;5216;54.602;18.356;2024-02-26T14:45:13;11.67;;;10.63;;